Athol, South Dakota
Current Conditions -  °F | °C
As of 6:06 PM on Sunday 25 Jan 2015 (Local Time) from KABR Reporting Station
Overcast Overcast  
Wind Chill: 25°   Ceiling: 2800
Heat Index: 32°   Visibility: 10mi
Dew Point: 28°   Wind: 8mph
Humidity: 85%   Direction: 190°S
Pressure: 29.98"   Gusts: NA
Location:  45.027°N, 98.472°W
Report Text: KABR 260006Z AUTO 19007KT 10SM SCT009 OVC028 00/M02 A2998 RMK AO2 T00001022
Loading
Personal Weather Stations






























Interactive Weather Map New forecast layout! Learn more

10-Day Weather Forecast

Advertisements
Track Severe Weather on mobile